Time;durP1;ratioP1;P1;durP2;ratioP2;P2;SDS_P1;SDS_P2;PMS_P1;PMS_P2;Temp;Humidity;BMP_temperature;BMP_pressure;BME280_temperature;BME280_humidity;BME280_pressure;Samples;Min_cycle;Max_cycle;Signal;HPM_P1;HPM_P2
2023/05/06 00:02:30;;;;;;;1.10;0.65;;;18.90;99.90;;;;;;1861794;76;21103;-86
2023/05/06 00:05:22;;;;;;;1.57;0.80;;;19.00;99.90;;;;;;1835076;78;21207;-86
2023/05/06 00:08:14;;;;;;;1.20;0.53;;;19.00;99.90;;;;;;1839747;78;21208;-86
2023/05/06 00:11:05;;;;;;;1.52;0.80;;;18.90;99.90;;;;;;1831770;78;21578;-86
2023/05/06 00:16:38;;;;;;;2.62;0.80;;;18.80;99.90;;;;;;1952989;72;22233;-86
2023/05/06 00:19:29;;;;;;;1.72;0.80;;;18.70;99.90;;;;;;1901461;75;21140;-85
2023/05/06 00:22:21;;;;;;;2.10;0.80;;;18.60;99.90;;;;;;1895813;75;21176;-86
2023/05/06 00:25:12;;;;;;;2.98;1.05;;;18.60;99.90;;;;;;1880558;75;21110;-86
2023/05/06 00:28:04;;;;;;;3.05;0.90;;;18.50;99.90;;;;;;1906214;75;21083;-87
2023/05/06 00:30:55;;;;;;;1.40;0.90;;;18.40;99.90;;;;;;1884317;75;21107;-87
2023/05/06 00:33:47;;;;;;;1.65;0.80;;;18.40;99.90;;;;;;1896928;75;21211;-87
2023/05/06 00:36:39;;;;;;;1.37;0.70;;;18.30;99.90;;;;;;1894672;75;21653;-87
2023/05/06 00:39:32;;;;;;;1.40;0.80;;;18.30;99.90;;;;;;1894712;75;21089;-86
2023/05/06 00:42:23;;;;;;;1.20;0.85;;;18.20;99.90;;;;;;1913334;75;21176;-87
2023/05/06 00:45:15;;;;;;;1.85;0.72;;;18.10;99.90;;;;;;1898212;75;21572;-86
2023/05/06 00:48:07;;;;;;;2.35;0.80;;;18.10;99.90;;;;;;1885954;75;21135;-86
2023/05/06 00:50:59;;;;;;;5.78;1.17;;;18.00;99.90;;;;;;1888042;75;21175;-87
2023/05/06 00:53:50;;;;;;;2.87;0.85;;;18.00;99.90;;;;;;1895498;75;21090;-86
2023/05/06 00:56:42;;;;;;;1.95;0.85;;;18.00;99.90;;;;;;1885363;73;21128;-86
2023/05/06 00:59:34;;;;;;;1.57;0.75;;;17.90;99.90;;;;;;1906210;75;21170;-87
2023/05/06 01:02:25;;;;;;;2.95;1.05;;;18.00;99.90;;;;;;1884062;76;21239;-86
2023/05/06 01:05:21;;;;;;;2.58;1.50;;;18.00;99.90;;;;;;1906330;75;21176;-87
2023/05/06 01:08:15;;;;;;;1.92;0.80;;;17.90;99.90;;;;;;1901655;75;21103;-86
2023/05/06 01:11:11;;;;;;;1.72;1.10;;;17.90;99.90;;;;;;1892220;75;21209;-87
2023/05/06 01:14:07;;;;;;;4.65;1.70;;;17.90;99.90;;;;;;1906192;75;21122;-86
2023/05/06 01:17:02;;;;;;;2.27;1.50;;;17.90;99.90;;;;;;1897280;74;21166;-87
2023/05/06 01:19:55;;;;;;;3.15;1.10;;;17.90;99.90;;;;;;1884066;76;21140;-86
2023/05/06 01:22:46;;;;;;;2.95;1.70;;;17.80;99.90;;;;;;1902441;75;21102;-87
2023/05/06 01:25:38;;;;;;;2.02;1.50;;;17.80;99.90;;;;;;1885255;75;21573;-86
2023/05/06 01:28:29;;;;;;;2.83;1.80;;;17.70;99.90;;;;;;1893231;75;21099;-86
2023/05/06 01:31:26;;;;;;;3.67;1.52;;;17.80;99.90;;;;;;1893484;75;21680;-86
2023/05/06 01:34:20;;;;;;;2.52;1.47;;;17.70;99.90;;;;;;1892278;75;21201;-87
2023/05/06 01:39:57;;;;;;;3.47;1.60;;;17.60;99.90;;;;;;1941709;72;22311;-85
2023/05/06 01:42:50;;;;;;;2.47;1.32;;;17.50;99.90;;;;;;1897779;74;21106;-85
2023/05/06 01:45:42;;;;;;;2.95;1.50;;;17.40;99.90;;;;;;1924120;74;21071;-88
2023/05/06 01:48:36;;;;;;;3.37;1.35;;;17.30;99.90;;;;;;1899900;75;21095;-86
2023/05/06 01:51:27;;;;;;;3.10;1.47;;;17.20;99.90;;;;;;1896400;75;21188;-86
2023/05/06 01:54:19;;;;;;;3.33;1.67;;;17.20;99.90;;;;;;1899107;74;21143;-86
2023/05/06 01:57:10;;;;;;;1.80;1.35;;;17.10;99.90;;;;;;1903587;73;21118;-86
2023/05/06 02:02:48;;;;;;;3.60;1.60;;;16.80;99.90;;;;;;1955270;72;22275;-85
2023/05/06 02:05:39;;;;;;;3.50;1.60;;;16.80;99.90;;;;;;1901621;74;21110;-86
2023/05/06 02:08:32;;;;;;;2.37;1.37;;;16.70;99.90;;;;;;1894850;75;21089;-86
2023/05/06 02:11:25;;;;;;;3.70;1.50;;;16.60;99.90;;;;;;1895739;75;21091;-86
2023/05/06 02:14:18;;;;;;;1.47;1.20;;;16.50;99.90;;;;;;1884334;76;21101;-85
2023/05/06 02:19:50;;;;;;;2.05;1.50;;;16.50;99.90;;;;;;1934731;72;22330;-86
2023/05/06 02:22:41;;;;;;;3.08;1.27;;;16.50;99.90;;;;;;1904601;75;21156;-86
2023/05/06 02:25:33;;;;;;;1.75;1.22;;;16.40;99.90;;;;;;1893500;75;21071;-87
2023/05/06 02:28:25;;;;;;;3.15;1.40;;;16.30;99.90;;;;;;1900389;75;21433;-88
2023/05/06 02:31:17;;;;;;;2.27;1.62;;;16.30;99.90;;;;;;1882781;75;21549;-87
2023/05/06 02:34:09;;;;;;;2.67;1.50;;;16.30;99.90;;;;;;1886788;75;21144;-85
2023/05/06 02:37:02;;;;;;;2.27;1.42;;;16.30;99.90;;;;;;1872357;76;21503;-87
2023/05/06 02:39:54;;;;;;;3.15;1.55;;;16.30;99.90;;;;;;1894203;75;21161;-86
2023/05/06 02:42:45;;;;;;;2.58;1.50;;;16.20;99.90;;;;;;1895625;75;21055;-87
2023/05/06 02:45:37;;;;;;;3.00;1.50;;;16.20;99.90;;;;;;1892392;75;21059;-86
2023/05/06 02:48:28;;;;;;;4.95;1.45;;;16.30;99.90;;;;;;1887112;75;21426;-88
2023/05/06 02:51:20;;;;;;;4.62;1.50;;;16.20;99.90;;;;;;1873832;75;21777;-86
2023/05/06 02:54:10;;;;;;;3.60;1.60;;;16.20;99.90;;;;;;1894157;75;21361;-87
2023/05/06 02:57:02;;;;;;;2.52;1.65;;;16.30;99.90;;;;;;1872373;75;21193;-87
2023/05/06 02:59:54;;;;;;;2.52;1.27;;;16.30;99.90;;;;;;1887178;75;21082;-86
2023/05/06 03:05:25;;;;;;;3.40;1.42;;;16.20;99.90;;;;;;1973447;72;22194;-87
2023/05/06 03:08:17;;;;;;;2.50;1.40;;;16.20;99.90;;;;;;1916790;75;21618;-86
2023/05/06 03:11:09;;;;;;;2.27;1.10;;;16.30;99.90;;;;;;1916738;75;21170;-87
2023/05/06 03:14:01;;;;;;;1.52;1.12;;;16.20;99.90;;;;;;1940013;73;21181;-86
2023/05/06 03:16:52;;;;;;;1.75;1.30;;;16.20;99.90;;;;;;1917287;74;21062;-86
2023/05/06 03:19:44;;;;;;;3.67;1.50;;;16.10;99.90;;;;;;1917129;75;21086;-86
2023/05/06 03:22:35;;;;;;;2.22;1.10;;;16.10;99.90;;;;;;1892391;75;21515;-86
2023/05/06 03:25:27;;;;;;;1.90;1.17;;;16.10;99.90;;;;;;1927015;73;21098;-86
2023/05/06 03:28:19;;;;;;;2.50;1.30;;;16.10;99.90;;;;;;1940012;73;21093;-87
2023/05/06 03:31:11;;;;;;;3.60;1.30;;;16.10;99.90;;;;;;1917228;75;21517;-86
2023/05/06 03:34:03;;;;;;;2.83;1.55;;;16.10;99.90;;;;;;1917055;75;21125;-87
2023/05/06 03:36:54;;;;;;;2.75;1.35;;;16.10;99.90;;;;;;1916755;75;21110;-86
2023/05/06 03:39:47;;;;;;;2.67;1.40;;;16.10;99.90;;;;;;1922243;73;21165;-86
2023/05/06 03:42:40;;;;;;;3.30;1.30;;;16.10;99.90;;;;;;1950007;73;21159;-86
2023/05/06 03:45:32;;;;;;;3.83;1.32;;;16.10;99.90;;;;;;1916955;75;21082;-87
2023/05/06 03:48:24;;;;;;;2.35;1.37;;;16.10;99.90;;;;;;1917085;75;21079;-87
2023/05/06 03:51:16;;;;;;;3.40;1.50;;;16.00;99.90;;;;;;1917142;75;21101;-87
2023/05/06 03:54:08;;;;;;;4.00;1.37;;;16.00;99.90;;;;;;1917214;75;21114;-86
2023/05/06 03:57:00;;;;;;;2.87;1.25;;;15.90;99.90;;;;;;1917447;75;21215;-87
2023/05/06 03:59:51;;;;;;;3.00;1.17;;;15.90;99.90;;;;;;1917009;75;21157;-87
2023/05/06 04:02:43;;;;;;;2.80;1.37;;;15.90;99.90;;;;;;1916943;75;21067;-87
2023/05/06 04:05:36;;;;;;;1.82;1.40;;;15.90;99.90;;;;;;1927923;73;21109;-87
2023/05/06 04:08:27;;;;;;;3.25;1.50;;;16.00;99.90;;;;;;1932272;73;21164;-87
2023/05/06 04:11:19;;;;;;;2.40;1.35;;;15.90;99.90;;;;;;1920487;74;21081;-87
2023/05/06 04:14:11;;;;;;;2.72;1.35;;;16.00;99.90;;;;;;1922718;74;21119;-86
2023/05/06 04:17:04;;;;;;;4.20;1.35;;;15.90;99.90;;;;;;1921869;74;21051;-87
2023/05/06 04:19:55;;;;;;;1.67;1.12;;;15.90;99.90;;;;;;1922141;74;21224;-86
2023/05/06 04:22:46;;;;;;;3.42;1.25;;;15.90;99.90;;;;;;1926033;74;21131;-87
2023/05/06 04:28:47;;;;;;;2.25;1.32;;;15.90;99.90;;;;;;1994605;71;27917;-86
2023/05/06 04:31:39;;;;;;;2.50;1.30;;;15.90;99.90;;;;;;1929762;73;21908;-86
2023/05/06 04:34:35;;;;;;;1.65;1.02;;;15.90;99.90;;;;;;2006889;70;21128;-86
2023/05/06 04:37:27;;;;;;;3.08;1.32;;;15.90;99.90;;;;;;2009896;70;21077;-86
2023/05/06 04:40:20;;;;;;;2.95;1.20;;;15.80;99.90;;;;;;2011762;70;21153;-88
2023/05/06 04:43:12;;;;;;;2.52;1.40;;;15.70;99.90;;;;;;1994636;70;21187;-86
2023/05/06 04:46:03;;;;;;;2.15;1.10;;;15.80;99.90;;;;;;2019305;70;21205;-87
2023/05/06 04:48:57;;;;;;;3.27;1.52;;;15.70;99.90;;;;;;2018346;70;21111;-87
2023/05/06 04:51:47;;;;;;;2.12;1.22;;;15.70;99.90;;;;;;2012584;70;21085;-87
2023/05/06 04:54:40;;;;;;;4.15;1.40;;;15.50;99.90;;;;;;2008250;70;21080;-87
2023/05/06 04:57:33;;;;;;;3.92;1.57;;;15.50;99.90;;;;;;2027085;70;21096;-86
2023/05/06 05:00:25;;;;;;;2.95;1.37;;;15.60;99.90;;;;;;2004907;70;21081;-87
2023/05/06 05:03:17;;;;;;;2.10;1.70;;;15.70;99.90;;;;;;2014378;70;21061;-87
2023/05/06 05:06:10;;;;;;;4.37;1.40;;;15.70;99.90;;;;;;2008770;70;21622;-86
2023/05/06 05:09:01;;;;;;;1.47;1.30;;;15.80;99.90;;;;;;2007337;70;21077;-87
2023/05/06 05:11:53;;;;;;;2.05;1.27;;;15.80;99.90;;;;;;2005055;70;21086;-87
2023/05/06 05:14:46;;;;;;;3.47;1.60;;;15.80;99.90;;;;;;2016975;70;21410;-87
2023/05/06 05:17:37;;;;;;;3.60;1.85;;;15.80;99.90;;;;;;2011853;70;21069;-87
2023/05/06 05:20:29;;;;;;;4.47;1.60;;;15.80;99.90;;;;;;2007136;70;21537;-87
2023/05/06 05:23:22;;;;;;;3.70;1.67;;;15.80;99.90;;;;;;2007405;70;21556;-86
2023/05/06 05:26:13;;;;;;;2.12;1.47;;;15.80;99.90;;;;;;2008142;70;21032;-87
2023/05/06 05:29:06;;;;;;;3.47;1.60;;;15.80;99.90;;;;;;2031396;70;21081;-88
2023/05/06 05:31:57;;;;;;;3.37;1.50;;;15.90;99.90;;;;;;2008797;70;21147;-87
2023/05/06 05:34:49;;;;;;;3.52;1.45;;;15.90;99.90;;;;;;2006741;70;21069;-88
2023/05/06 05:37:40;;;;;;;2.27;1.27;;;16.10;99.90;;;;;;2005088;70;21077;-87
2023/05/06 05:40:33;;;;;;;4.90;1.65;;;16.20;99.90;;;;;;1994297;71;21049;-87
2023/05/06 05:43:25;;;;;;;2.55;1.52;;;16.30;99.90;;;;;;1994376;72;21069;-86
2023/05/06 05:46:17;;;;;;;2.20;1.42;;;16.30;99.90;;;;;;2018986;70;21038;-87
2023/05/06 05:49:09;;;;;;;2.90;1.62;;;16.30;99.90;;;;;;2019000;70;21021;-87
2023/05/06 05:52:01;;;;;;;2.72;1.70;;;16.30;99.90;;;;;;2016805;70;21115;-86
2023/05/06 05:54:54;;;;;;;3.25;1.60;;;16.50;99.90;;;;;;2014293;70;21464;-87
2023/05/06 05:57:46;;;;;;;2.47;1.80;;;16.50;99.90;;;;;;2011608;69;21069;-87
2023/05/06 06:00:38;;;;;;;1.90;1.65;;;16.50;99.90;;;;;;1997868;70;21049;-87
2023/05/06 06:03:32;;;;;;;3.85;1.60;;;16.60;99.90;;;;;;2020297;70;21070;-87
2023/05/06 06:06:23;;;;;;;2.45;1.60;;;16.60;99.90;;;;;;2011368;70;21151;-86
2023/05/06 06:09:16;;;;;;;3.02;1.80;;;16.70;99.90;;;;;;2006333;70;21090;-88
2023/05/06 06:12:09;;;;;;;2.92;1.60;;;16.90;99.90;;;;;;2022067;70;21588;-87
2023/05/06 06:15:02;;;;;;;3.42;1.60;;;16.90;99.90;;;;;;2005793;70;21065;-87
2023/05/06 06:17:55;;;;;;;3.92;1.50;;;17.00;99.90;;;;;;2015177;70;21083;-87
2023/05/06 06:20:47;;;;;;;1.70;1.40;;;17.00;99.90;;;;;;2018016;70;21030;-87
2023/05/06 06:23:41;;;;;;;4.83;1.80;;;17.00;99.90;;;;;;2025250;70;21076;-87
2023/05/06 06:26:33;;;;;;;2.90;1.62;;;17.00;99.90;;;;;;2003039;70;21148;-88
2023/05/06 06:29:24;;;;;;;2.60;1.62;;;17.10;99.90;;;;;;1994956;72;21100;-87
2023/05/06 06:32:16;;;;;;;3.37;1.60;;;17.20;99.90;;;;;;2021460;70;21150;-87
2023/05/06 06:35:08;;;;;;;4.35;1.70;;;17.30;99.90;;;;;;2017302;70;21091;-87
2023/05/06 06:38:01;;;;;;;2.70;1.40;;;17.40;99.90;;;;;;2017009;70;21134;-87
2023/05/06 06:40:53;;;;;;;2.75;1.55;;;17.50;99.90;;;;;;2018324;69;21082;-87
2023/05/06 06:43:44;;;;;;;5.58;1.90;;;17.60;99.90;;;;;;2023064;70;21061;-88
2023/05/06 06:46:41;;;;;;;2.50;1.80;;;17.60;99.90;;;;;;2018415;70;21128;-87
2023/05/06 06:49:33;;;;;;;2.65;1.47;;;17.70;99.90;;;;;;2042068;70;21197;-87
2023/05/06 06:52:24;;;;;;;1.92;1.50;;;17.80;99.90;;;;;;2016618;70;21116;-87
2023/05/06 06:55:15;;;;;;;4.65;1.95;;;17.80;99.90;;;;;;2021057;70;21137;-87
2023/05/06 06:58:07;;;;;;;2.92;1.80;;;17.90;99.90;;;;;;2004579;71;21097;-87
2023/05/06 07:01:00;;;;;;;5.70;2.70;;;17.90;99.90;;;;;;2029395;70;21126;-87
2023/05/06 07:03:51;;;;;;;6.50;2.22;;;18.00;99.90;;;;;;2032950;70;21083;-86
2023/05/06 07:06:43;;;;;;;6.42;2.92;;;18.10;99.90;;;;;;2019476;70;21038;-88
2023/05/06 07:09:38;;;;;;;5.92;2.98;;;18.10;99.90;;;;;;2020654;70;21080;-89
2023/05/06 07:12:31;;;;;;;3.75;1.90;;;18.20;99.90;;;;;;2016871;70;21065;-87
2023/05/06 07:15:23;;;;;;;3.30;1.72;;;18.30;99.90;;;;;;2016136;70;21080;-88
2023/05/06 07:20:53;;;;;;;4.33;1.60;;;18.40;99.90;;;;;;1934937;72;22267;-86
2023/05/06 07:23:45;;;;;;;2.72;1.87;;;18.40;99.90;;;;;;1908585;75;21168;-87
2023/05/06 07:26:37;;;;;;;4.47;1.90;;;18.50;99.90;;;;;;1896818;75;21211;-87
2023/05/06 07:29:29;;;;;;;3.55;2.35;;;18.70;99.90;;;;;;1879689;76;21356;-86
2023/05/06 07:32:20;;;;;;;4.87;1.85;;;18.60;99.90;;;;;;1883882;76;21106;-87
2023/05/06 07:35:12;;;;;;;4.05;1.80;;;18.70;99.90;;;;;;1914934;75;21102;-87
2023/05/06 07:38:03;;;;;;;4.05;1.72;;;18.80;99.90;;;;;;1894775;75;21112;-87
2023/05/06 07:40:55;;;;;;;2.15;1.52;;;18.90;99.90;;;;;;1895527;75;21109;-87
2023/05/06 07:43:47;;;;;;;3.02;1.90;;;19.00;99.90;;;;;;1900495;75;21098;-87
2023/05/06 07:46:38;;;;;;;3.42;1.77;;;19.10;99.90;;;;;;1895453;75;21115;-87
2023/05/06 07:49:32;;;;;;;2.52;1.40;;;19.20;99.90;;;;;;1911454;75;21152;-87
2023/05/06 07:52:23;;;;;;;4.20;1.40;;;19.20;99.90;;;;;;1884286;75;21482;-87
2023/05/06 07:55:14;;;;;;;4.58;2.00;;;19.40;99.90;;;;;;1916214;74;21102;-87
2023/05/06 07:58:06;;;;;;;2.40;1.50;;;19.40;99.90;;;;;;1896378;73;21099;-87
2023/05/06 08:00:57;;;;;;;2.08;1.22;;;19.40;99.90;;;;;;1888404;75;21557;-87
2023/05/06 08:03:48;;;;;;;3.15;1.60;;;19.50;99.90;;;;;;1906298;75;21172;-87
2023/05/06 08:06:40;;;;;;;3.72;1.57;;;19.60;99.90;;;;;;1903223;75;21149;-87
2023/05/06 08:09:32;;;;;;;2.92;1.92;;;19.60;99.90;;;;;;1917080;75;21218;-87
2023/05/06 08:15:10;;;;;;;5.10;1.80;;;19.70;99.90;;;;;;1936047;72;27997;-87
2023/05/06 08:20:41;;;;;;;2.35;1.35;;;20.10;99.90;;;;;;1945729;73;22289;-87
2023/05/06 08:23:35;;;;;;;2.90;1.70;;;20.20;99.90;;;;;;1907640;75;21091;-88
2023/05/06 08:26:27;;;;;;;2.92;1.35;;;20.20;99.90;;;;;;1909258;75;21140;-87
2023/05/06 08:29:19;;;;;;;5.30;1.62;;;20.30;99.90;;;;;;1914356;75;21055;-88
2023/05/06 08:32:10;;;;;;;3.85;1.50;;;20.30;99.90;;;;;;1899955;75;21164;-87
2023/05/06 08:35:02;;;;;;;4.70;1.85;;;20.40;99.90;;;;;;1915152;75;21235;-87
2023/05/06 08:37:53;;;;;;;2.15;1.50;;;20.50;99.90;;;;;;1915053;75;21173;-87
2023/05/06 08:40:45;;;;;;;3.58;1.70;;;20.60;99.90;;;;;;1890554;74;21098;-88
2023/05/06 08:43:41;;;;;;;1.92;1.60;;;20.60;99.90;;;;;;1895826;75;21134;-87
2023/05/06 08:46:33;;;;;;;2.85;1.50;;;20.60;99.90;;;;;;1900929;75;21065;-87
2023/05/06 08:49:25;;;;;;;2.62;1.55;;;20.70;99.90;;;;;;1897818;75;21486;-87
2023/05/06 08:55:00;;;;;;;2.60;1.50;;;20.80;99.90;;;;;;1957443;72;22220;-87
2023/05/06 08:57:52;;;;;;;2.37;1.70;;;20.90;99.90;;;;;;1893419;74;21240;-90
2023/05/06 09:00:45;;;;;;;3.15;1.42;;;21.00;99.90;;;;;;1898215;75;21099;-76
2023/05/06 09:03:36;;;;;;;2.75;1.30;;;21.00;99.90;;;;;;1882999;75;21632;-75
2023/05/06 09:06:28;;;;;;;2.05;1.37;;;21.10;99.90;;;;;;1888188;75;21616;-76
2023/05/06 09:09:19;;;;;;;4.17;1.37;;;21.10;99.90;;;;;;1883518;75;21193;-75
2023/05/06 09:12:13;;;;;;;2.75;1.55;;;21.20;99.90;;;;;;1877108;75;21107;-77
2023/05/06 09:15:07;;;;;;;2.95;1.20;;;21.30;99.90;;;;;;1894021;75;21091;-76
2023/05/06 09:18:00;;;;;;;2.72;1.50;;;21.30;99.90;;;;;;1890503;75;21140;-76
2023/05/06 09:20:52;;;;;;;3.15;1.30;;;21.40;99.90;;;;;;1885979;75;21111;-75
2023/05/06 09:23:44;;;;;;;2.10;1.20;;;21.40;99.90;;;;;;1882621;75;21105;-75
2023/05/06 09:26:37;;;;;;;2.75;1.30;;;21.50;99.90;;;;;;1882671;74;21143;-76
2023/05/06 09:29:28;;;;;;;2.70;1.40;;;21.60;99.90;;;;;;1884760;75;21058;-75
2023/05/06 09:32:19;;;;;;;3.00;1.30;;;21.60;99.90;;;;;;1872197;76;21055;-75
2023/05/06 09:35:11;;;;;;;6.20;1.50;;;21.60;99.90;;;;;;1903081;75;21106;-75
2023/05/06 09:38:03;;;;;;;2.35;1.22;;;21.70;99.90;;;;;;1899591;75;21272;-75
2023/05/06 09:40:57;;;;;;;2.65;1.10;;;21.80;99.90;;;;;;1890271;75;21265;-75
2023/05/06 09:46:30;;;;;;;3.62;1.42;;;21.90;99.90;;;;;;1942359;72;22175;-76
2023/05/06 09:49:22;;;;;;;2.52;1.10;;;21.90;99.90;;;;;;1916724;75;21094;-75
2023/05/06 09:52:14;;;;;;;2.08;1.20;;;21.90;99.90;;;;;;1916951;75;21109;-75
2023/05/06 09:55:10;;;;;;;3.50;1.40;;;21.80;99.90;;;;;;1916913;75;21089;-77
2023/05/06 09:58:03;;;;;;;4.22;1.72;;;22.00;99.90;;;;;;1916984;73;21063;-76
2023/05/06 10:00:56;;;;;;;5.75;1.40;;;21.80;99.90;;;;;;1939146;73;21127;-75
2023/05/06 10:03:50;;;;;;;2.80;1.30;;;21.80;99.90;;;;;;1916651;75;21129;-75
2023/05/06 10:09:23;;;;;;;3.58;1.57;;;21.90;99.90;;;;;;1963190;72;22162;-75
2023/05/06 10:12:15;;;;;;;4.70;1.67;;;22.00;99.90;;;;;;1916572;75;21191;-76
2023/05/06 10:15:09;;;;;;;1.37;1.15;;;22.10;99.90;;;;;;1930703;73;21155;-76
2023/05/06 10:18:03;;;;;;;2.75;1.20;;;22.20;99.90;;;;;;1916998;75;21083;-76
2023/05/06 10:20:54;;;;;;;3.92;1.20;;;22.30;99.90;;;;;;1916838;75;21110;-76
2023/05/06 10:23:50;;;;;;;3.27;1.10;;;22.20;99.90;;;;;;1939624;73;21156;-76
2023/05/06 10:26:45;;;;;;;2.35;0.90;;;22.20;99.90;;;;;;1916844;75;21170;-76
2023/05/06 10:29:37;;;;;;;2.35;1.00;;;22.40;99.90;;;;;;1939841;73;21184;-76
2023/05/06 10:32:32;;;;;;;1.40;1.00;;;22.40;99.90;;;;;;1916995;75;21121;-76
2023/05/06 10:35:28;;;;;;;1.60;0.98;;;22.40;99.90;;;;;;1929763;73;21094;-75
2023/05/06 10:38:24;;;;;;;3.65;1.10;;;22.70;99.90;;;;;;1919129;73;21114;-76
2023/05/06 10:41:16;;;;;;;1.20;1.00;;;22.70;99.90;;;;;;1919944;73;21481;-76
2023/05/06 10:44:08;;;;;;;1.20;1.00;;;22.70;99.90;;;;;;1916696;73;21118;-75
2023/05/06 10:47:01;;;;;;;2.25;1.00;;;22.80;99.90;;;;;;1916761;73;21396;-76
2023/05/06 10:50:19;;;;;;;1.25;1.15;;;22.90;99.90;;;;;;1916506;73;21092;-76
2023/05/06 10:53:10;;;;;;;1.45;1.00;;;23.00;99.90;;;;;;1916751;75;21265;-81
2023/05/06 10:56:09;;;;;;;2.60;1.05;;;23.10;99.90;;;;;;1919613;73;21196;-89
2023/05/06 10:59:06;;;;;;;1.47;1.07;;;23.20;99.90;;;;;;1917016;75;21081;-80
2023/05/06 11:02:06;;;;;;;1.57;0.80;;;23.50;99.90;;;;;;1916606;75;21111;-79
2023/05/06 11:05:02;;;;;;;3.08;1.12;;;23.50;99.90;;;;;;1916600;75;21225;-79
2023/05/06 11:07:55;;;;;;;2.30;1.10;;;23.40;99.90;;;;;;1916044;74;21641;-79
2023/05/06 11:10:46;;;;;;;2.40;1.10;;;23.60;99.90;;;;;;1925449;74;21181;-79
2023/05/06 11:13:38;;;;;;;2.12;1.30;;;23.60;99.90;;;;;;1933554;74;21098;-89
2023/05/06 11:16:47;;;;;;;1.80;0.95;;;23.70;99.90;;;;;;1924962;74;21039;-88
2023/05/06 11:19:39;;;;;;;1.22;1.05;;;23.80;99.90;;;;;;1923381;74;21147;-88
2023/05/06 11:25:42;;;;;;;2.15;1.10;;;24.00;99.90;;;;;;1966849;72;22250;-89
2023/05/06 11:28:34;;;;;;;2.60;1.00;;;24.10;99.90;;;;;;1924472;73;21105;-88
2023/05/06 11:31:26;;;;;;;3.87;1.22;;;24.20;99.90;;;;;;1924966;73;21130;-89
2023/05/06 11:34:25;;;;;;;5.40;1.20;;;24.20;99.90;;;;;;1916844;75;21090;-88
2023/05/06 11:37:25;;;;;;;2.10;0.82;;;24.40;99.90;;;;;;1946915;73;21090;-88
2023/05/06 11:40:17;;;;;;;4.17;2.33;;;24.50;99.90;;;;;;1917283;75;21644;-88
2023/05/06 11:43:12;;;;;;;1.27;0.90;;;24.50;99.90;;;;;;1940091;73;21103;-90
2023/05/06 11:46:04;;;;;;;1.40;1.00;;;24.70;99.90;;;;;;1920677;73;21050;-90
2023/05/06 11:48:56;;;;;;;2.05;1.27;;;24.60;99.90;;;;;;1917140;75;21160;-89
2023/05/06 11:51:49;;;;;;;2.70;1.10;;;24.70;99.90;;;;;;1917580;75;21117;-90
2023/05/06 11:54:43;;;;;;;1.32;1.10;;;24.90;99.90;;;;;;1917101;75;21698;-90
2023/05/06 11:57:35;;;;;;;1.60;1.00;;;25.10;99.90;;;;;;1920147;73;21104;-90
2023/05/06 12:00:27;;;;;;;1.77;1.07;;;25.10;99.90;;;;;;1917095;75;21153;-90
2023/05/06 12:03:18;;;;;;;2.22;1.02;;;25.20;99.90;;;;;;1935194;73;21159;-90
2023/05/06 12:06:11;;;;;;;2.17;0.90;;;25.20;99.90;;;;;;1937793;73;21757;-88
2023/05/06 12:09:04;;;;;;;1.30;1.00;;;25.20;99.90;;;;;;1916998;75;21102;-89
2023/05/06 12:11:58;;;;;;;2.62;1.10;;;25.20;99.90;;;;;;1917165;75;21163;-89
2023/05/06 12:14:52;;;;;;;1.17;1.00;;;25.30;99.90;;;;;;1918287;75;21501;-89
2023/05/06 12:17:43;;;;;;;1.55;1.05;;;25.20;99.90;;;;;;1918086;75;21057;-88
2023/05/06 12:20:36;;;;;;;1.95;1.00;;;25.40;99.90;;;;;;1926697;73;21096;-90
2023/05/06 12:23:27;;;;;;;1.40;0.93;;;25.50;99.90;;;;;;1937952;73;21162;-88
2023/05/06 12:26:20;;;;;;;2.25;0.93;;;25.50;99.90;;;;;;1928675;73;21062;-88
2023/05/06 12:29:16;;;;;;;2.20;1.02;;;25.50;99.90;;;;;;1934009;73;21119;-88
2023/05/06 12:32:11;;;;;;;2.25;1.35;;;25.60;99.90;;;;;;1916945;75;21125;-88
2023/05/06 12:37:47;;;;;;;1.95;0.98;;;25.80;99.90;;;;;;1950797;72;22156;-87
2023/05/06 12:43:31;;;;;;;1.70;1.10;;;26.00;99.90;;;;;;1944169;72;22254;-87
2023/05/06 12:46:22;;;;;;;1.52;1.00;;;26.00;99.90;;;;;;1927648;74;21122;-88
2023/05/06 12:49:15;;;;;;;1.15;0.93;;;26.00;99.90;;;;;;1904846;75;21191;-88
2023/05/06 12:52:08;;;;;;;1.47;1.07;;;25.80;99.90;;;;;;1904518;75;21187;-89
2023/05/06 12:55:01;;;;;;;1.37;1.00;;;25.90;99.90;;;;;;1918333;74;21121;-88
2023/05/06 12:57:52;;;;;;;1.17;0.70;;;25.90;99.90;;;;;;1915752;74;21430;-87
2023/05/06 13:00:45;;;;;;;3.02;1.30;;;25.80;99.90;;;;;;1923903;74;21078;-88
2023/05/06 13:03:39;;;;;;;2.60;1.25;;;25.70;99.90;;;;;;1915810;74;21172;-88
2023/05/06 13:06:31;;;;;;;4.58;1.10;;;25.60;99.90;;;;;;1855297;77;21148;-87
2023/05/06 13:09:27;;;;;;;2.15;0.80;;;25.80;99.90;;;;;;1904624;75;21091;-89
2023/05/06 13:12:18;;;;;;;4.45;1.02;;;26.00;99.90;;;;;;1904685;73;21172;-87
2023/05/06 13:15:12;;;;;;;1.90;1.00;;;25.90;99.90;;;;;;1904596;75;21183;-88
2023/05/06 13:18:04;;;;;;;1.20;0.93;;;26.00;99.90;;;;;;1904582;75;21059;-89
2023/05/06 13:20:56;;;;;;;1.00;0.85;;;26.00;99.90;;;;;;1919387;74;21094;-89
2023/05/06 13:23:49;;;;;;;3.20;1.10;;;26.00;99.90;;;;;;1905854;74;21123;-88
2023/05/06 13:26:41;;;;;;;1.60;0.80;;;26.00;99.90;;;;;;1908933;74;21115;-86
2023/05/06 13:29:34;;;;;;;1.62;0.90;;;25.90;99.90;;;;;;1916046;74;21098;-88
2023/05/06 13:32:26;;;;;;;2.25;1.00;;;26.10;99.90;;;;;;1924050;70;21114;-80
2023/05/06 13:35:17;;;;;;;2.10;1.00;;;26.20;99.90;;;;;;1921702;74;21094;-80
2023/05/06 13:38:08;;;;;;;0.88;0.78;;;26.30;99.90;;;;;;1916480;74;21110;-79
2023/05/06 13:41:00;;;;;;;2.60;1.00;;;26.40;99.90;;;;;;1917192;73;21070;-80
2023/05/06 13:43:51;;;;;;;3.60;1.00;;;26.30;99.90;;;;;;1925605;74;21086;-80
2023/05/06 13:49:23;;;;;;;1.72;0.90;;;26.30;99.90;;;;;;1928798;72;22240;-79
2023/05/06 13:52:15;;;;;;;2.17;1.10;;;26.40;99.90;;;;;;1905717;75;21110;-79
2023/05/06 13:57:48;;;;;;;1.10;1.00;;;26.80;99.90;;;;;;1930151;72;22236;-79
2023/05/06 14:00:40;;;;;;;1.15;1.05;;;27.10;99.90;;;;;;1880911;75;21125;-80
2023/05/06 14:03:32;;;;;;;1.70;0.98;;;27.10;99.90;;;;;;1892431;75;21099;-80
2023/05/06 14:06:24;;;;;;;3.62;1.02;;;27.10;99.10;;;;;;1888760;75;21204;-80
2023/05/06 14:09:15;;;;;;;2.45;1.45;;;27.20;99.60;;;;;;1872184;75;21071;-81
2023/05/06 14:12:07;;;;;;;3.80;1.40;;;27.50;99.20;;;;;;1885040;74;21145;-80
2023/05/06 14:14:59;;;;;;;1.85;1.05;;;27.50;98.60;;;;;;1883363;75;21106;-80
2023/05/06 14:17:52;;;;;;;1.85;1.00;;;27.80;98.80;;;;;;1889007;75;21135;-80
2023/05/06 14:20:44;;;;;;;1.40;0.95;;;27.80;97.40;;;;;;1884210;75;21130;-80
2023/05/06 14:23:36;;;;;;;1.52;1.00;;;28.00;97.10;;;;;;1883012;75;21232;-80
2023/05/06 14:26:28;;;;;;;2.72;1.05;;;28.00;97.20;;;;;;1880896;75;21553;-80
2023/05/06 14:32:00;;;;;;;3.40;1.10;;;27.20;97.80;;;;;;1962837;72;22242;-80
2023/05/06 14:34:51;;;;;;;1.35;1.00;;;26.90;98.10;;;;;;1916802;75;21183;-80
2023/05/06 14:37:43;;;;;;;2.83;1.20;;;27.30;98.10;;;;;;1939166;73;21098;-81
2023/05/06 14:40:37;;;;;;;1.80;1.02;;;28.00;97.10;;;;;;1916738;74;21171;-80
2023/05/06 14:43:28;;;;;;;3.92;1.17;;;28.30;96.00;;;;;;1916904;75;21598;-80
2023/05/06 14:46:19;;;;;;;3.50;1.10;;;28.70;95.40;;;;;;1948014;73;21138;-80
2023/05/06 14:49:10;;;;;;;1.87;1.02;;;29.00;94.30;;;;;;1924874;73;21146;-80
2023/05/06 14:52:02;;;;;;;1.45;0.90;;;28.80;94.80;;;;;;1936736;73;21110;-80
2023/05/06 14:54:54;;;;;;;2.00;1.20;;;28.20;95.50;;;;;;1934853;73;21185;-80
2023/05/06 14:57:45;;;;;;;2.67;1.17;;;28.60;94.70;;;;;;1920210;73;21153;-79
2023/05/06 15:00:37;;;;;;;2.77;1.07;;;28.90;94.30;;;;;;1916783;75;21456;-80
2023/05/06 15:03:29;;;;;;;1.65;1.00;;;29.10;93.20;;;;;;1916827;75;21164;-80
2023/05/06 15:06:20;;;;;;;1.45;1.10;;;29.20;92.80;;;;;;1916774;75;21152;-80
2023/05/06 15:09:12;;;;;;;1.57;1.00;;;29.10;92.20;;;;;;1916760;75;21259;-80
2023/05/06 15:14:44;;;;;;;2.02;1.00;;;29.10;92.20;;;;;;1953944;72;22134;-79
2023/05/06 15:17:36;;;;;;;2.37;0.90;;;29.40;92.00;;;;;;1897338;75;21572;-79
2023/05/06 15:20:28;;;;;;;2.30;1.30;;;28.90;92.50;;;;;;1908115;75;21124;-79
2023/05/06 15:23:20;;;;;;;1.22;1.00;;;28.60;92.60;;;;;;1905552;75;21054;-79
2023/05/06 15:26:11;;;;;;;3.27;1.10;;;28.50;92.40;;;;;;1883651;73;21130;-79
2023/05/06 15:29:04;;;;;;;1.22;1.00;;;27.70;93.70;;;;;;1899455;75;21151;-79
2023/05/06 15:31:55;;;;;;;2.60;1.05;;;27.30;94.30;;;;;;1894766;75;21183;-79
2023/05/06 15:34:47;;;;;;;3.62;1.02;;;27.30;94.80;;;;;;1894683;75;21185;-78
2023/05/06 15:37:39;;;;;;;1.62;1.00;;;28.40;93.40;;;;;;1894393;75;21303;-79
2023/05/06 15:40:30;;;;;;;2.77;1.10;;;28.40;93.20;;;;;;1900712;75;21134;-78
2023/05/06 15:43:23;;;;;;;1.35;1.05;;;29.10;92.40;;;;;;1895409;75;21225;-79
2023/05/06 15:46:15;;;;;;;1.90;0.93;;;29.70;91.00;;;;;;1894684;75;21533;-79
2023/05/06 15:49:06;;;;;;;2.25;1.00;;;30.00;90.60;;;;;;1893914;75;21119;-79
2023/05/06 15:54:42;;;;;;;2.65;1.20;;;30.20;90.50;;;;;;1929523;72;22762;-86